This is the latest recevied weather packets stored in our database for station/object IN3BXS. If no packets are shown the sender has not sent any weather packets the latest 10 day(s).
| Time | Temp. | Humidity | Pressure | Rain* | Wind** | Luminosity | Snow |
|---|---|---|---|---|---|---|---|
| 1777156227 | 10° C | 28% | 1013.4 hPa | 0 mm | - | - | - |
| 1777154426 | 9.44° C | 29% | 1013.6 hPa | 0 mm | - | - | - |
| 1777152626 | 9.44° C | 28% | 1013.4 hPa | 0 mm | - | - | - |
| 1777150827 | 10° C | 27% | 1013.2 hPa | 0 mm | - | - | - |
| 1777149026 | 10.56° C | 27% | 1013 hPa | 0 mm | - | - | - |
| 1777147226 | 12.22° C | 26% | 1012.3 hPa | 0 mm | - | - | - |
| 1777145426 | 12.78° C | 26% | 1010.9 hPa | 0 mm | - | - | - |
| 1777143626 | 13.89° C | 25% | 1010.4 hPa | 0 mm | - | - | - |
| 1777141828 | 14.44° C | 24% | 1010.1 hPa | 0 mm | - | - | - |
| 1777140025 | 15° C | 22% | 1008.7 hPa | 0 mm | - | - | - |
| 1777138225 | 16.11° C | 21% | 1008.4 hPa | 0 mm | - | - | - |
| 1777136426 | 16.67° C | 21% | 1008.2 hPa | 0 mm | - | - | - |
| 1777134627 | 17.22° C | 21% | 1007.9 hPa | 0 mm | - | - | - |
| 1777132826 | 17.78° C | 21% | 1007.6 hPa | 0 mm | - | - | - |
| 1777131028 | 18.33° C | 18% | 1007.4 hPa | 0 mm | - | - | - |
| 1777129226 | 18.89° C | 17% | 1007.2 hPa | 0 mm | - | - | - |
| 1777127427 | 19.44° C | 17% | 1007 hPa | 0 mm | - | - | - |
| 1777125626 | 20° C | 17% | 1006.8 hPa | 0 mm | - | - | - |
| 1777123857 | 20.56° C | 17% | 1006.6 hPa | 0 mm | - | - | - |
| 1777123826 | 20.56° C | 17% | 1006.6 hPa | 0 mm | - | - | - |
| 1777120226 | 20° C | 17% | 1007.9 hPa | 0 mm | - | - | - |
| 1777118427 | 20° C | 17% | 1007.8 hPa | 0 mm | - | - | - |
| 1777116626 | 19.44° C | 17% | 1008 hPa | 0 mm | - | - | - |
| 1777114827 | 19.44° C | 17% | 1008.2 hPa | 0 mm | - | - | - |
| 1777113026 | 18.89° C | 18% | 1009.5 hPa | 0 mm | - | - | - |
* Rain latest hour (hover to see other rain measurements)
** Current wind speed in m/s (hover to see current wind gust speed)